Morgan City, Mississippi
Current Conditions -  °F | °C
As of 4:53 PM on Thursday 18 Dec 2014 (Local Time) from KGWO Reporting Station
Overcast Overcast  
Wind Chill: 51°   Ceiling: 3600
Heat Index: 51°   Visibility: 10mi
Dew Point: 43°   Wind: 5mph
Humidity: 74%   Direction: 60°ENE
Pressure: 30.17"   Gusts: NA
Location:  33.38°N, 90.35°W
Report Text: KGWO 182253Z AUTO 06004KT 10SM OVC036 11/06 A3017 RMK AO2 SLP215 T01060061
Loading
Personal Weather Stations






























Interactive Weather Map New forecast layout! Learn more

10-Day Weather Forecast

Advertisements
Track Severe Weather on mobile